Islamorada, FL

2:32 PM EDT on October 25, 2014 (GMT -0400)
Kendall-Tamiami Executive | Change Station
CLOSE
Current Station
Airport
Location: Kendall,
Elevation: 10 ft
Nearby Weather Stations

Elev 10 ft 25.64 °N, 80.43 °W | Updated 39 minutes ago

Clear
Clear
85 °F
Feels Like 85 °F
N
12
Wind Variable Wind from North

Today
High -- | Low -- °F
--% Chance of Precip.
Yesterday
High -- | Low -- °F
Precip. -- in
7:25 AM 6:47 PM
Waxing Crescent, 4% visible
Pressure 29.90 in
Visibility 10.0 miles
Clouds Clear
Heat Index 85 °F
Dew Point 61 °F
Humidity 44%
Rainfall 0.00 in
Snow Depth Not available.
UV 9 out of 12
Pollen 3.00 out of 12
Air Quality Not available.
Flu Activity Local Activity
METAR KTMB 251753Z 01010KT 10SM CLR 29/16 A2990 RMK AO2 SLP125 T02940161 10294 20211 58011

More Conditions Fewer Conditions

Pressure 29.90 in
Visibility 10.0 miles
Clouds Clear
Heat Index 85 °F
Dew Point 61 °F
Humidity 44%
Rainfall 0.00 in
Snow Depth Not available.
UV 9 out of 12
Pollen 3.00 out of 12
Air Quality Not available.
Flu Activity Local Activity
METAR KTMB 251753Z 01010KT 10SM CLR 29/16 A2990 RMK AO2 SLP125 T02940161 10294 20211 58011

More Conditions Fewer Conditions

10-Day Weather Forecast

Almanac

Astronomy

Oct. 25, 2014 Rise Set
Actual Time 7:25 AM EDT 6:47 PM EDT
Civil Twilight 7:02 AM EDT 7:10 PM EDT
Nautical Twilight 6:35 AM EDT 7:37 PM EDT
Astronomical Twilight 6:09 AM EDT 8:03 PM EDT
Moon 8:55 AM EDT 8:17 PM EDT
Length of Visible Light 12h 07m
Length of Day
11h 21m
Tomorrow will be 1m 19s shorter.
Waxing Crescent, 4% of the Moon is Illuminated
Today
Waxing Crescent
Oct 30
First Quarter
Nov 6
Full
Nov 14
Last Quarter
Nov 22
New

Today's Extremes

State Highs State Lows

Community

WunderPhotos

Upload Photos

1,764,954 photos uploaded!

Nearby

Snow Depth

Station Depth Elevation
No new snow has been reported.

Earthquake Activity

City Distance Mag. Time & Date
No recent earthquake activity has been reported nearby.
Minimum magnitude displayed is 2.5.

Coastal Water Temperatures

Place Temperature
No Stations Reporting

Nearby Weather Stations